createdAt,value
2023-06-29T00:00:13.056Z,2.7
2023-06-29T00:01:21.431Z,3.4
2023-06-29T00:02:29.716Z,3.4
2023-06-29T00:03:38.041Z,3.4
2023-06-29T00:04:46.597Z,3.4
2023-06-29T00:05:54.918Z,3.4
2023-06-29T00:07:03.285Z,3.4
2023-06-29T00:08:11.807Z,3
2023-06-29T00:09:20.160Z,3
2023-06-29T00:10:28.500Z,3
2023-06-29T00:11:37.052Z,2.8
2023-06-29T00:12:45.379Z,2.8
2023-06-29T00:13:53.704Z,2.8
2023-06-29T00:15:02.221Z,3.5
2023-06-29T00:16:10.596Z,3.5
2023-06-29T00:17:18.867Z,3.5
2023-06-29T00:18:27.399Z,3.6
2023-06-29T00:19:35.746Z,3.6
2023-06-29T00:20:44.062Z,3.6
2023-06-29T00:21:52.573Z,3.3
2023-06-29T00:23:00.897Z,3.3
2023-06-29T00:24:09.232Z,3.3
2023-06-29T00:25:17.801Z,3.2
2023-06-29T00:26:26.130Z,3.2
2023-06-29T00:27:34.466Z,3.2
2023-06-29T00:28:43.011Z,2.9
2023-06-29T00:29:51.372Z,2.9
2023-06-29T00:30:59.696Z,2.9
2023-06-29T00:32:08.250Z,3.4
2023-06-29T00:33:16.560Z,3.4
2023-06-29T00:34:24.925Z,3.4
2023-06-29T00:35:33.460Z,3.1
2023-06-29T00:36:41.819Z,3.1
2023-06-29T00:37:50.128Z,3.1
2023-06-29T00:38:58.858Z,3.4
2023-06-29T00:40:07.207Z,3.4
2023-06-29T00:41:15.550Z,3.4
2023-06-29T00:42:24.086Z,2.6
2023-06-29T00:43:32.433Z,2.6
2023-06-29T00:44:40.760Z,2.6
2023-06-29T00:45:49.297Z,2.7
2023-06-29T00:46:57.664Z,2.7
2023-06-29T00:48:06.144Z,2.7
2023-06-29T00:49:14.507Z,3.8
2023-06-29T00:50:22.928Z,3.8
2023-06-29T00:51:31.177Z,3.8
2023-06-29T00:52:39.746Z,2.9
2023-06-29T00:53:48.060Z,2.9
2023-06-29T00:54:56.401Z,2.9
2023-06-29T00:56:04.954Z,3.5
2023-06-29T00:57:13.297Z,3.5
2023-06-29T00:58:21.653Z,3.5
2023-06-29T00:59:30.211Z,3.6
2023-06-29T01:00:38.605Z,3.6
2023-06-29T01:01:46.887Z,3.6
2023-06-29T01:02:55.475Z,3.3
2023-06-29T01:04:03.834Z,3.3
2023-06-29T01:05:12.115Z,3.3
2023-06-29T01:06:20.661Z,2.9
2023-06-29T01:07:29.171Z,2.9
2023-06-29T01:08:37.373Z,2.9
2023-06-29T01:09:45.900Z,3.7
2023-06-29T01:10:54.240Z,3.7
2023-06-29T01:12:02.588Z,3.7
2023-06-29T01:13:11.119Z,2.5
2023-06-29T01:14:19.447Z,2.5
2023-06-29T01:15:27.788Z,2.5
2023-06-29T01:16:36.396Z,3.6
2023-06-29T01:17:44.685Z,3.6
2023-06-29T01:18:53.008Z,3.6
2023-06-29T01:20:01.595Z,2.8
2023-06-29T01:21:09.891Z,2.8
2023-06-29T01:22:18.199Z,2.8
2023-06-29T01:23:26.725Z,3.8
2023-06-29T01:24:35.060Z,3.8
2023-06-29T01:25:43.626Z,3.8
2023-06-29T01:26:51.918Z,3.1
2023-06-29T01:28:00.248Z,3.1
2023-06-29T01:29:08.564Z,3.1
2023-06-29T01:30:17.132Z,3.3
2023-06-29T01:31:25.476Z,3.3
2023-06-29T01:32:33.781Z,3.3
2023-06-29T01:33:42.316Z,3.5
2023-06-29T01:34:50.669Z,3.5
2023-06-29T01:35:59.019Z,3.5
2023-06-29T01:37:07.530Z,4
2023-06-29T01:38:15.862Z,4
2023-06-29T01:39:24.195Z,4
2023-06-29T01:40:32.759Z,2.6
2023-06-29T01:41:41.076Z,2.6
2023-06-29T01:42:49.388Z,2.6
2023-06-29T01:43:57.924Z,5.2
2023-06-29T01:45:06.268Z,5.2
2023-06-29T01:46:14.607Z,5.2
2023-06-29T01:47:23.213Z,4.9
2023-06-29T01:48:31.469Z,4.9
2023-06-29T01:49:39.794Z,4.9
2023-06-29T01:50:48.349Z,3.8
2023-06-29T01:51:56.701Z,3.8
2023-06-29T01:53:05.021Z,3.8
2023-06-29T01:54:13.560Z,3.9
2023-06-29T01:55:21.909Z,3.9
2023-06-29T01:56:30.231Z,3.9
2023-06-29T01:57:38.797Z,3.3
2023-06-29T01:58:47.120Z,3.3
2023-06-29T01:59:55.441Z,3.3
2023-06-29T02:01:04.044Z,3.3
2023-06-29T02:02:12.320Z,3.3
2023-06-29T02:03:20.705Z,3.3
2023-06-29T02:04:29.174Z,3.5
2023-06-29T02:05:37.493Z,3.5
2023-06-29T02:06:45.831Z,3.5
2023-06-29T02:07:54.365Z,4
2023-06-29T02:09:02.674Z,4
2023-06-29T02:10:11.005Z,4
2023-06-29T02:11:19.553Z,3.4
2023-06-29T02:12:27.861Z,3.4
2023-06-29T02:13:36.190Z,3.4
2023-06-29T02:14:44.725Z,5.4
2023-06-29T02:15:53.067Z,5.4
2023-06-29T02:17:01.424Z,5.4
2023-06-29T02:18:09.958Z,3.7
2023-06-29T02:19:18.277Z,3.7
2023-06-29T02:20:26.617Z,3.7
2023-06-29T02:21:35.184Z,3.9
2023-06-29T02:22:43.501Z,3.9
2023-06-29T02:23:51.855Z,3.9
2023-06-29T02:25:00.386Z,3.5
2023-06-29T02:26:08.738Z,3.5
2023-06-29T02:27:17.076Z,3.5
2023-06-29T02:28:25.605Z,2.8
2023-06-29T02:29:33.924Z,2.8
2023-06-29T02:30:42.272Z,2.8
2023-06-29T02:31:50.892Z,3.8
2023-06-29T02:32:59.192Z,3.8
2023-06-29T02:34:07.466Z,3.8
2023-06-29T02:35:16.032Z,3.9
2023-06-29T02:36:24.356Z,3.9
2023-06-29T02:37:32.696Z,3.9
2023-06-29T02:38:41.230Z,2.9
2023-06-29T02:39:49.597Z,2.9
2023-06-29T02:40:57.895Z,2.9
2023-06-29T02:42:06.432Z,4.4
2023-06-29T02:43:14.753Z,4.4
2023-06-29T02:44:23.095Z,4.4
2023-06-29T02:45:31.645Z,3.9
2023-06-29T02:46:40.015Z,3.9
2023-06-29T02:47:48.363Z,3.9
2023-06-29T02:48:56.845Z,4.1
2023-06-29T02:50:05.193Z,4.1
2023-06-29T02:51:13.512Z,4.1
2023-06-29T02:52:22.051Z,2.9
2023-06-29T02:53:30.396Z,2.9
2023-06-29T02:54:38.736Z,2.9
2023-06-29T02:55:47.308Z,3.8
2023-06-29T02:56:55.626Z,3.8
2023-06-29T02:58:03.953Z,3.8
2023-06-29T02:59:12.463Z,3.5
2023-06-29T03:00:20.792Z,3.5
2023-06-29T03:01:29.173Z,3.5
2023-06-29T03:02:37.731Z,4.1
2023-06-29T03:03:45.992Z,4.1
2023-06-29T03:04:54.327Z,4.1
2023-06-29T03:06:02.865Z,2.9
2023-06-29T03:07:11.197Z,2.9
2023-06-29T03:08:19.519Z,2.9
2023-06-29T03:09:28.059Z,3.6
2023-06-29T03:10:36.424Z,3.6
2023-06-29T03:11:44.822Z,3.6
2023-06-29T03:12:53.251Z,2.4
2023-06-29T03:14:01.572Z,2.4
2023-06-29T03:15:09.898Z,2.4
2023-06-29T03:16:18.441Z,2.2
2023-06-29T03:17:26.809Z,2.2
2023-06-29T03:18:35.107Z,2.2
2023-06-29T03:19:43.641Z,3
2023-06-29T03:20:52.001Z,3
2023-06-29T03:22:00.340Z,3
2023-06-29T03:23:08.869Z,3.4
2023-06-29T03:24:17.310Z,3.4
2023-06-29T03:25:25.532Z,3.4
2023-06-29T03:26:34.088Z,3.1
2023-06-29T03:27:42.460Z,3.1
2023-06-29T03:28:50.744Z,3.1
2023-06-29T03:29:59.316Z,3.9
2023-06-29T03:31:07.674Z,3.9
2023-06-29T03:32:15.996Z,3.9
2023-06-29T03:33:24.560Z,3.6
2023-06-29T03:34:32.903Z,3.6
2023-06-29T03:35:41.288Z,3.6
2023-06-29T03:36:49.772Z,2.7
2023-06-29T03:37:58.113Z,2.7
2023-06-29T03:39:06.435Z,2.7
2023-06-29T03:40:14.980Z,3
2023-06-29T03:41:23.307Z,3
2023-06-29T03:42:31.646Z,3
2023-06-29T03:43:40.217Z,2.7
2023-06-29T03:44:48.481Z,2.7
2023-06-29T03:45:56.816Z,2.7
2023-06-29T03:47:05.328Z,3
2023-06-29T03:48:13.726Z,3
2023-06-29T03:49:21.995Z,3
2023-06-29T03:50:30.527Z,3.4
2023-06-29T03:51:38.832Z,3.4
2023-06-29T03:52:47.166Z,3.4
2023-06-29T03:53:55.695Z,3.7
2023-06-29T03:55:04.022Z,3.7
2023-06-29T03:56:12.340Z,3.7
2023-06-29T03:57:20.875Z,3.5
2023-06-29T03:58:29.209Z,3.5
2023-06-29T03:59:37.571Z,3.5
2023-06-29T04:00:46.052Z,2.7
2023-06-29T04:01:54.453Z,2.7
2023-06-29T04:03:02.741Z,2.7
2023-06-29T04:04:11.281Z,2.7
2023-06-29T04:05:19.539Z,2.7
2023-06-29T04:06:27.862Z,2.7
2023-06-29T04:07:36.449Z,3.5
2023-06-29T04:08:44.727Z,3.5
2023-06-29T04:09:53.051Z,3.5
2023-06-29T04:11:01.568Z,2.5
2023-06-29T04:12:09.916Z,2.5
2023-06-29T04:13:18.250Z,2.5
2023-06-29T04:14:26.822Z,4.3
2023-06-29T04:15:35.160Z,4.3
2023-06-29T04:16:43.504Z,4.3
2023-06-29T04:17:52.059Z,2.4
2023-06-29T04:19:00.366Z,2.4
2023-06-29T04:20:08.685Z,2.4
2023-06-29T04:21:17.256Z,3.3
2023-06-29T04:22:25.648Z,3.3
2023-06-29T04:23:34.025Z,3.3
2023-06-29T04:24:42.519Z,4.8
2023-06-29T04:25:50.844Z,4.8
2023-06-29T04:26:59.184Z,4.8
2023-06-29T04:28:07.715Z,3.6
2023-06-29T04:29:16.090Z,3.6
2023-06-29T04:30:24.453Z,3.6
2023-06-29T04:31:32.965Z,4.2
2023-06-29T04:32:41.299Z,4.2
2023-06-29T04:33:49.614Z,4.2
2023-06-29T04:34:58.140Z,2.3
2023-06-29T04:36:06.498Z,2.3
2023-06-29T04:37:14.838Z,2.3
2023-06-29T04:38:23.376Z,4.3
2023-06-29T04:39:31.714Z,4.3
2023-06-29T04:40:40.070Z,4.3
2023-06-29T04:41:48.628Z,3.2
2023-06-29T04:42:58.865Z,3.2
2023-06-29T04:44:05.346Z,3.2
2023-06-29T04:45:14.418Z,4.2
2023-06-29T04:46:22.766Z,4.2
2023-06-29T04:47:31.138Z,4.2
2023-06-29T04:48:39.801Z,4.9
2023-06-29T04:49:48.068Z,4.9
2023-06-29T04:50:56.307Z,4.9
2023-06-29T04:52:04.852Z,5.5
2023-06-29T04:53:13.201Z,5.5
2023-06-29T04:54:21.551Z,5.5
2023-06-29T04:55:30.132Z,3.5
2023-06-29T04:56:38.457Z,3.5
2023-06-29T04:57:46.788Z,3.5
2023-06-29T04:58:55.362Z,2.4
2023-06-29T05:00:03.699Z,2.4
2023-06-29T05:01:12.069Z,2.4
2023-06-29T05:02:20.626Z,2.7
2023-06-29T05:03:29.107Z,2.7
2023-06-29T05:04:37.301Z,2.7
2023-06-29T05:05:46.135Z,3.5
2023-06-29T05:06:54.276Z,3.5
2023-06-29T05:08:02.554Z,3.5
2023-06-29T05:09:11.105Z,3.5
2023-06-29T05:10:19.459Z,3.5
2023-06-29T05:11:27.807Z,3.5
2023-06-29T05:12:36.365Z,3.5
2023-06-29T05:13:44.707Z,3.5
2023-06-29T05:14:53.058Z,3.5
2023-06-29T05:16:01.604Z,2.6
2023-06-29T05:17:09.962Z,2.6
2023-06-29T05:18:18.296Z,2.6
2023-06-29T05:19:26.902Z,3.7
2023-06-29T05:20:35.207Z,3.7
2023-06-29T05:21:43.594Z,3.7
2023-06-29T05:22:52.118Z,2.6
2023-06-29T05:24:00.479Z,2.6
2023-06-29T05:25:08.826Z,2.6
2023-06-29T05:26:17.400Z,3.3
2023-06-29T05:27:25.733Z,3.3
2023-06-29T05:28:34.073Z,3.3
2023-06-29T05:29:42.617Z,4.3
2023-06-29T05:30:50.972Z,4.3
2023-06-29T05:31:59.349Z,4.3
2023-06-29T05:33:07.948Z,2.6
2023-06-29T05:34:16.198Z,2.6
2023-06-29T05:35:24.580Z,2.6
2023-06-29T05:36:33.123Z,4.4
2023-06-29T05:37:41.445Z,4.4
2023-06-29T05:38:49.818Z,4.4
2023-06-29T05:39:58.378Z,3.2
2023-06-29T05:41:06.831Z,3.2
2023-06-29T05:42:15.061Z,3.2
2023-06-29T05:43:23.624Z,2.8
2023-06-29T05:44:31.963Z,2.8
2023-06-29T05:45:40.356Z,2.8
2023-06-29T05:46:48.881Z,4.1
2023-06-29T05:47:57.211Z,4.1
2023-06-29T05:49:05.541Z,4.1
2023-06-29T05:50:14.123Z,4.3
2023-06-29T05:51:22.496Z,4.3
2023-06-29T05:52:30.817Z,4.3
2023-06-29T05:53:43.233Z,2.7
2023-06-29T05:54:51.589Z,2.7
2023-06-29T05:55:59.954Z,2.7
2023-06-29T05:57:08.538Z,3.9
2023-06-29T05:58:16.916Z,3.9
2023-06-29T05:59:25.238Z,3.9
2023-06-29T06:00:33.785Z,4.1
2023-06-29T06:01:42.126Z,4.1
2023-06-29T06:02:50.518Z,4.1
2023-06-29T06:03:59.113Z,2.8
2023-06-29T06:05:07.401Z,2.8
2023-06-29T06:06:15.734Z,2.8
2023-06-29T06:07:24.386Z,4
2023-06-29T06:08:32.673Z,4
2023-06-29T06:09:41.005Z,4
2023-06-29T06:10:49.562Z,3.8
2023-06-29T06:11:57.906Z,3.8
2023-06-29T06:13:06.263Z,3.8
2023-06-29T06:14:14.810Z,3.7
2023-06-29T06:15:23.172Z,3.7
2023-06-29T06:16:31.534Z,3.7
2023-06-29T06:17:40.081Z,4.8
2023-06-29T06:18:48.386Z,4.8
2023-06-29T06:19:56.716Z,4.8
2023-06-29T06:21:05.257Z,3.2
2023-06-29T06:22:13.628Z,3.2
2023-06-29T06:23:22.059Z,3.2
2023-06-29T06:24:30.498Z,3.7
2023-06-29T06:25:38.863Z,3.7
2023-06-29T06:26:47.219Z,3.7
2023-06-29T06:27:55.791Z,3.6
2023-06-29T06:29:04.115Z,3.6
2023-06-29T06:30:12.460Z,3.6
2023-06-29T06:31:32.424Z,3.9
2023-06-29T06:32:29.400Z,3.9
2023-06-29T06:33:37.704Z,3.9
2023-06-29T06:34:46.252Z,3.7
2023-06-29T06:35:54.631Z,3.7
2023-06-29T06:37:02.966Z,3.7
2023-06-29T06:38:11.504Z,4.3
2023-06-29T06:39:19.969Z,4.3
2023-06-29T06:40:28.237Z,4.3
2023-06-29T06:41:36.758Z,3.8
2023-06-29T06:42:45.089Z,3.8
2023-06-29T06:43:53.434Z,3.8
2023-06-29T06:45:01.979Z,5.5
2023-06-29T06:46:10.377Z,5.5
2023-06-29T06:47:18.673Z,5.5
2023-06-29T06:48:27.221Z,3.2
2023-06-29T06:49:35.587Z,3.2
2023-06-29T06:50:44.045Z,3.2
2023-06-29T06:51:52.492Z,6.3
2023-06-29T06:53:00.825Z,6.3
2023-06-29T06:54:09.160Z,6.3
2023-06-29T06:55:17.740Z,3.5
2023-06-29T06:56:26.073Z,3.5
2023-06-29T06:57:34.405Z,3.5
2023-06-29T06:58:42.949Z,4.9
2023-06-29T06:59:51.313Z,4.9
2023-06-29T07:00:59.677Z,4.9
2023-06-29T07:02:08.219Z,3.4
2023-06-29T07:03:16.614Z,3.4
2023-06-29T07:04:24.927Z,3.4
2023-06-29T07:05:33.465Z,4.3
2023-06-29T07:06:41.802Z,4.3
2023-06-29T07:07:50.179Z,4.3
2023-06-29T07:08:58.733Z,3.3
2023-06-29T07:10:07.089Z,3.3
2023-06-29T07:11:15.460Z,3.3
2023-06-29T07:12:23.993Z,3
2023-06-29T07:13:32.365Z,3
2023-06-29T07:14:40.727Z,3
2023-06-29T07:15:49.276Z,4.6
2023-06-29T07:16:57.684Z,4.6
2023-06-29T07:18:06.029Z,4.6
2023-06-29T07:21:31.250Z,2.5
2023-06-29T07:24:56.532Z,2.2
2023-06-29T07:26:05.080Z,3.2
2023-06-29T07:27:13.969Z,3.2
2023-06-29T07:28:21.848Z,3.2
2023-06-29T07:29:30.362Z,4.8
2023-06-29T07:30:38.730Z,4.8
2023-06-29T07:31:47.060Z,4.8
2023-06-29T07:32:55.604Z,3.2
2023-06-29T07:34:03.950Z,3.2
2023-06-29T07:35:12.312Z,3.2
2023-06-29T07:36:20.862Z,2.6
2023-06-29T07:37:29.201Z,2.6
2023-06-29T07:38:37.558Z,2.6
2023-06-29T07:39:46.104Z,4.3
2023-06-29T07:40:54.462Z,4.3
2023-06-29T07:42:02.801Z,4.3
2023-06-29T07:43:11.505Z,2.2
2023-06-29T07:44:19.731Z,2.2
2023-06-29T07:45:28.080Z,2.2
2023-06-29T07:46:36.643Z,3.5
2023-06-29T07:47:45.009Z,3.5
2023-06-29T07:48:53.491Z,3.5
2023-06-29T07:50:01.945Z,3.2
2023-06-29T07:51:10.291Z,3.2
2023-06-29T07:52:18.666Z,3.2
2023-06-29T07:53:27.210Z,5.5
2023-06-29T07:54:35.558Z,5.5
2023-06-29T07:55:44.166Z,5.5
2023-06-29T07:59:09.197Z,5.5
2023-06-29T08:00:17.735Z,4.3
2023-06-29T08:01:26.129Z,4.3
2023-06-29T08:02:34.528Z,4.3
2023-06-29T08:03:59.898Z,4.5
2023-06-29T08:07:10.289Z,4.5
2023-06-29T08:08:16.759Z,4.5
2023-06-29T08:09:25.002Z,4.5
2023-06-29T08:10:33.562Z,3.6
2023-06-29T08:11:41.918Z,3.6
2023-06-29T08:12:50.272Z,3.6
2023-06-29T08:13:58.834Z,2.6
2023-06-29T08:15:07.206Z,2.6
2023-06-29T08:16:15.587Z,2.6
2023-06-29T08:17:24.094Z,2.9
2023-06-29T08:18:32.490Z,2.9
2023-06-29T08:19:40.815Z,2.9
2023-06-29T08:20:49.402Z,2.9
2023-06-29T08:21:57.730Z,2.9
2023-06-29T08:23:06.076Z,2.9
2023-06-29T08:24:16.904Z,2.7
2023-06-29T08:25:23.750Z,2.7
2023-06-29T08:26:32.088Z,2.7
2023-06-29T08:27:40.658Z,4.7
2023-06-29T08:28:48.979Z,4.7
2023-06-29T08:29:57.345Z,4.7
2023-06-29T08:31:07.518Z,4.7
2023-06-29T08:32:14.262Z,4.7
2023-06-29T08:33:22.644Z,4.7
2023-06-29T08:34:31.114Z,3.4
2023-06-29T08:35:39.471Z,3.4
2023-06-29T08:36:48.634Z,3.4
2023-06-29T08:37:56.356Z,2.9
2023-06-29T08:39:04.694Z,2.9
2023-06-29T08:40:13.054Z,2.9
2023-06-29T08:41:21.613Z,3.7
2023-06-29T08:42:29.962Z,3.7
2023-06-29T08:43:38.345Z,3.7
2023-06-29T08:44:46.869Z,3.8
2023-06-29T08:45:55.265Z,3.8
2023-06-29T08:47:03.588Z,3.8
2023-06-29T08:48:12.116Z,2.9
2023-06-29T08:49:20.454Z,2.9
2023-06-29T08:50:28.790Z,2.9
2023-06-29T08:51:37.337Z,3.9
2023-06-29T08:52:45.711Z,3.9
2023-06-29T08:53:54.033Z,3.9
2023-06-29T08:55:02.602Z,4.4
2023-06-29T08:56:10.959Z,4.4
2023-06-29T08:57:19.295Z,4.4
2023-06-29T08:58:27.848Z,3.1
2023-06-29T08:59:36.193Z,3.1
2023-06-29T09:00:44.889Z,3.1
2023-06-29T09:01:53.262Z,3.4
2023-06-29T09:03:01.500Z,3.4
2023-06-29T09:04:09.813Z,3.4
2023-06-29T09:05:18.306Z,3.9
2023-06-29T09:06:28.161Z,3.9
2023-06-29T09:07:34.962Z,3.9
2023-06-29T09:08:43.499Z,4.4
2023-06-29T09:09:51.880Z,4.4
2023-06-29T09:11:00.192Z,4.4
2023-06-29T09:12:08.743Z,3.5
2023-06-29T09:13:17.083Z,3.5
2023-06-29T09:14:25.404Z,3.5
2023-06-29T09:15:33.976Z,4.4
2023-06-29T09:16:42.336Z,4.4
2023-06-29T09:17:50.668Z,4.4
2023-06-29T09:18:59.225Z,3.2
2023-06-29T09:20:07.546Z,3.2
2023-06-29T09:21:15.893Z,3.2
2023-06-29T09:22:24.443Z,4.2
2023-06-29T09:23:32.778Z,4.2
2023-06-29T09:24:49.497Z,4.2
2023-06-29T09:25:49.733Z,3
2023-06-29T09:26:58.017Z,3
2023-06-29T09:28:06.538Z,3
2023-06-29T09:29:14.904Z,3.7
2023-06-29T09:30:23.268Z,3.7
2023-06-29T09:31:31.670Z,3.7
2023-06-29T09:32:40.210Z,3
2023-06-29T09:33:48.527Z,3
2023-06-29T09:34:56.887Z,3
2023-06-29T09:36:06.998Z,3
2023-06-29T09:37:13.731Z,3
2023-06-29T09:38:22.072Z,3
2023-06-29T09:39:30.610Z,4.3
2023-06-29T09:40:38.953Z,4.3
2023-06-29T09:41:47.280Z,4.3
2023-06-29T09:42:55.836Z,3.3
2023-06-29T09:44:04.185Z,3.3
2023-06-29T09:45:12.513Z,3.3
2023-06-29T09:46:21.219Z,3.6
2023-06-29T09:49:46.351Z,3
2023-06-29T09:50:54.957Z,3
2023-06-29T09:52:02.982Z,3
2023-06-29T09:53:11.572Z,4
2023-06-29T09:54:19.891Z,4
2023-06-29T09:55:28.195Z,4
2023-06-29T09:56:36.789Z,3.3
2023-06-29T09:57:45.100Z,3.3
2023-06-29T09:58:54.411Z,3.3
2023-06-29T10:00:01.989Z,4
2023-06-29T10:01:10.353Z,4
2023-06-29T10:02:18.719Z,4
2023-06-29T10:03:27.246Z,3.8
2023-06-29T10:04:35.714Z,3.8
2023-06-29T10:05:43.936Z,3.8
2023-06-29T10:06:52.528Z,3.9
2023-06-29T10:08:00.859Z,3.9
2023-06-29T10:09:09.198Z,3.9
2023-06-29T10:10:17.778Z,7.3
2023-06-29T10:11:26.123Z,7.3
2023-06-29T10:12:34.462Z,7.3
2023-06-29T10:13:43.029Z,4.1
2023-06-29T10:14:51.368Z,4.1
2023-06-29T10:15:59.694Z,4.1
2023-06-29T10:17:08.312Z,4.3
2023-06-29T10:18:16.620Z,4.3
2023-06-29T10:19:24.974Z,4.3
2023-06-29T10:20:33.513Z,3.8
2023-06-29T10:21:41.852Z,3.8
2023-06-29T10:22:50.213Z,3.8
2023-06-29T10:23:58.749Z,3
2023-06-29T10:25:07.108Z,3
2023-06-29T10:26:15.442Z,3
2023-06-29T10:27:23.998Z,3.3
2023-06-29T10:28:32.357Z,3.3
2023-06-29T10:29:40.697Z,3.3
2023-06-29T10:30:49.299Z,3.7
2023-06-29T10:31:57.589Z,3.7
2023-06-29T10:33:05.969Z,3.7
2023-06-29T10:34:14.482Z,6.5
2023-06-29T10:35:24.422Z,6.5
2023-06-29T10:36:31.175Z,6.5
2023-06-29T10:37:39.719Z,3.9
2023-06-29T10:38:48.087Z,3.9
2023-06-29T10:39:56.403Z,3.9
2023-06-29T10:41:05.323Z,5
2023-06-29T10:42:13.681Z,5
2023-06-29T10:43:22.043Z,5
2023-06-29T10:44:30.585Z,4.2
2023-06-29T10:45:38.927Z,4.2
2023-06-29T10:46:47.385Z,4.2
2023-06-29T10:47:55.855Z,2.9
2023-06-29T10:49:04.160Z,2.9
2023-06-29T10:50:12.504Z,2.9
2023-06-29T10:51:21.101Z,2.8
2023-06-29T10:52:29.385Z,2.8
2023-06-29T10:53:37.727Z,2.8
2023-06-29T10:54:46.306Z,3.7
2023-06-29T10:55:54.613Z,3.7
2023-06-29T10:57:02.956Z,3.7
2023-06-29T10:58:11.504Z,3.6
2023-06-29T10:59:19.846Z,3.6
2023-06-29T11:00:28.198Z,3.6
2023-06-29T11:01:36.759Z,2.9
2023-06-29T11:02:45.139Z,2.9
2023-06-29T11:03:53.585Z,2.9
2023-06-29T11:05:01.962Z,2.2
2023-06-29T11:06:10.356Z,2.2
2023-06-29T11:07:18.753Z,2.2
2023-06-29T11:08:27.226Z,3.1
2023-06-29T11:09:35.572Z,3.1
2023-06-29T11:10:44.210Z,3.1
2023-06-29T11:11:52.482Z,3
2023-06-29T11:13:00.796Z,3
2023-06-29T11:14:09.125Z,3
2023-06-29T11:15:19.989Z,4.2
2023-06-29T11:16:26.153Z,4.2
2023-06-29T11:17:34.500Z,4.2
2023-06-29T11:18:43.013Z,4.2
2023-06-29T11:19:51.389Z,4.2
2023-06-29T11:20:59.757Z,4.2
2023-06-29T11:22:08.311Z,7.9
2023-06-29T11:23:16.643Z,7.9
2023-06-29T11:24:24.997Z,7.9
2023-06-29T11:25:33.551Z,3.3
2023-06-29T11:26:41.930Z,3.3
2023-06-29T11:27:50.245Z,3.3
2023-06-29T11:28:58.806Z,2.5
2023-06-29T11:30:07.137Z,2.5
2023-06-29T11:31:15.496Z,2.5
2023-06-29T11:32:24.038Z,3.4
2023-06-29T11:33:34.695Z,3.4
2023-06-29T11:34:40.714Z,3.4
2023-06-29T11:35:49.312Z,2.5
2023-06-29T11:37:09.574Z,2.5
2023-06-29T11:38:05.993Z,2.5
2023-06-29T11:39:14.549Z,2.4
2023-06-29T11:40:22.879Z,2.4
2023-06-29T11:41:31.285Z,2.4
2023-06-29T11:42:39.947Z,4.7
2023-06-29T11:43:48.176Z,4.7
2023-06-29T11:44:56.517Z,4.7
2023-06-29T11:46:05.083Z,3.3
2023-06-29T11:48:21.756Z,3.3
2023-06-29T11:49:30.284Z,3.1
2023-06-29T11:50:38.640Z,3.1
2023-06-29T11:51:46.974Z,3.1
2023-06-29T11:52:55.523Z,2.9
2023-06-29T11:54:04.640Z,2.9
2023-06-29T11:55:12.973Z,2.9
2023-06-29T11:56:21.525Z,3.5
2023-06-29T11:57:29.862Z,3.5
2023-06-29T11:58:38.238Z,3.5
2023-06-29T11:59:46.781Z,2.1
2023-06-29T12:00:55.135Z,2.1
2023-06-29T12:02:03.469Z,2.1
2023-06-29T12:03:12.159Z,4.2
2023-06-29T12:04:20.433Z,4.2
2023-06-29T12:05:28.699Z,4.2
2023-06-29T12:06:37.306Z,2.4
2023-06-29T12:07:45.743Z,2.4
2023-06-29T12:08:54.055Z,2.4
2023-06-29T12:10:02.547Z,4
2023-06-29T12:11:10.904Z,4
2023-06-29T12:12:19.236Z,4
2023-06-29T12:13:27.793Z,3.8
2023-06-29T12:14:36.157Z,3.8
2023-06-29T12:17:58.996Z,3.8
2023-06-29T12:18:01.782Z,3.5
2023-06-29T12:19:09.841Z,3.5
2023-06-29T12:20:18.617Z,3.2
2023-06-29T12:21:26.930Z,3.2
2023-06-29T12:22:34.972Z,3.2
2023-06-29T12:23:43.513Z,2.6
2023-06-29T12:24:51.860Z,2.6
2023-06-29T12:26:00.206Z,2.6
2023-06-29T12:27:08.762Z,4.6
2023-06-29T12:28:17.099Z,4.6
2023-06-29T12:29:25.445Z,4.6
2023-06-29T12:30:34.017Z,3.4
2023-06-29T12:31:42.393Z,3.4
2023-06-29T12:32:50.743Z,3.4
2023-06-29T12:33:59.228Z,3.2
2023-06-29T12:35:07.566Z,3.2
2023-06-29T12:36:15.894Z,3.2
2023-06-29T12:37:24.455Z,3.8
2023-06-29T12:38:32.815Z,3.8
2023-06-29T12:39:41.167Z,3.8
2023-06-29T12:40:49.726Z,5
2023-06-29T12:41:58.067Z,5
2023-06-29T12:43:06.436Z,5
2023-06-29T12:44:14.992Z,3.3
2023-06-29T12:45:23.349Z,3.3
2023-06-29T12:46:34.318Z,3.3
2023-06-29T12:47:40.371Z,2.3
2023-06-29T12:48:48.664Z,2.3
2023-06-29T12:49:57.003Z,2.3
2023-06-29T12:51:05.544Z,2.6
2023-06-29T12:52:13.898Z,2.6
2023-06-29T12:53:22.249Z,2.6
2023-06-29T12:54:30.789Z,3.1
2023-06-29T12:55:39.139Z,3.1
2023-06-29T12:56:47.499Z,3.1
2023-06-29T12:57:56.036Z,3.3
2023-06-29T12:59:04.374Z,3.3
2023-06-29T13:00:12.729Z,3.3
2023-06-29T13:01:21.607Z,3.1
2023-06-29T13:02:30.304Z,3.1
2023-06-29T13:03:38.711Z,3.1
2023-06-29T13:04:47.137Z,3.6
2023-06-29T13:05:55.511Z,3.6
2023-06-29T13:07:03.860Z,3.6
2023-06-29T13:08:12.415Z,3.4
2023-06-29T13:09:20.790Z,3.4
2023-06-29T13:10:29.127Z,3.4
2023-06-29T13:11:37.693Z,2.4
2023-06-29T13:12:46.081Z,2.4
2023-06-29T13:13:54.482Z,2.4
2023-06-29T13:15:03.434Z,2.3
2023-06-29T13:16:11.414Z,2.3
2023-06-29T13:17:19.885Z,2.3
2023-06-29T13:18:28.354Z,2.6
2023-06-29T13:19:36.645Z,2.6
2023-06-29T13:20:45.005Z,2.6
2023-06-29T13:21:53.628Z,2.7
2023-06-29T13:23:01.918Z,2.7
2023-06-29T13:24:10.333Z,2.7
2023-06-29T13:25:18.884Z,2.5
2023-06-29T13:26:27.256Z,2.5
2023-06-29T13:27:35.592Z,2.5
2023-06-29T13:28:44.156Z,2.2
2023-06-29T13:29:52.519Z,2.2
2023-06-29T13:31:00.964Z,2.2
2023-06-29T13:32:09.482Z,2.5
2023-06-29T13:33:17.832Z,2.5
2023-06-29T13:34:26.210Z,2.5
2023-06-29T13:35:34.831Z,2.8
2023-06-29T13:36:43.176Z,2.8
2023-06-29T13:37:51.599Z,2.8
2023-06-29T13:39:00.324Z,3.5
2023-06-29T13:40:08.982Z,3.5
2023-06-29T13:41:17.274Z,3.5
2023-06-29T13:42:25.878Z,3
2023-06-29T13:43:34.232Z,3
2023-06-29T13:44:42.611Z,3
2023-06-29T13:45:51.494Z,2.7
2023-06-29T13:46:59.593Z,2.7
2023-06-29T13:48:07.964Z,2.7
2023-06-29T13:49:16.587Z,3.2
2023-06-29T13:50:28.812Z,3.2
2023-06-29T13:51:33.167Z,3.2
2023-06-29T13:52:41.737Z,3.3
2023-06-29T13:53:50.098Z,3.3
2023-06-29T13:54:58.461Z,3.3
2023-06-29T13:56:07.042Z,2.8
2023-06-29T13:57:15.389Z,2.8
2023-06-29T13:58:23.747Z,2.8
2023-06-29T13:59:32.307Z,3
2023-06-29T14:00:40.660Z,3
2023-06-29T14:01:49.083Z,3
2023-06-29T14:02:57.645Z,3.4
2023-06-29T14:04:06.044Z,3.4
2023-06-29T14:05:14.332Z,3.4
2023-06-29T14:06:22.912Z,3
2023-06-29T14:07:31.277Z,3
2023-06-29T14:08:39.582Z,3
2023-06-29T14:09:48.143Z,3
2023-06-29T14:10:56.499Z,3
2023-06-29T14:12:04.833Z,3
2023-06-29T14:13:13.407Z,3.4
2023-06-29T14:14:21.783Z,3.4
2023-06-29T14:15:30.149Z,3.4
2023-06-29T14:16:38.687Z,2.9
2023-06-29T14:17:47.101Z,2.9
2023-06-29T14:18:55.563Z,2.9
2023-06-29T14:20:03.945Z,4.5
2023-06-29T14:21:12.302Z,4.5
2023-06-29T14:22:20.655Z,4.5
2023-06-29T14:23:29.200Z,2.8
2023-06-29T14:24:37.553Z,2.8
2023-06-29T14:25:46.037Z,2.8
2023-06-29T14:26:54.461Z,3.7
2023-06-29T14:28:02.822Z,3.7
2023-06-29T14:29:11.165Z,3.7
2023-06-29T14:30:19.719Z,3.4
2023-06-29T14:31:28.065Z,3.4
2023-06-29T14:32:36.490Z,3.4
2023-06-29T14:33:45.092Z,2.8
2023-06-29T14:34:53.263Z,2.8
2023-06-29T14:36:01.613Z,2.8
2023-06-29T14:37:10.159Z,4.7
2023-06-29T14:38:18.530Z,4.7
2023-06-29T14:39:26.867Z,4.7
2023-06-29T14:40:35.435Z,2.8
2023-06-29T14:41:43.771Z,2.8
2023-06-29T14:42:52.112Z,2.8
2023-06-29T14:44:00.683Z,2.4
2023-06-29T14:45:09.036Z,2.4
2023-06-29T14:46:17.421Z,2.4
2023-06-29T14:47:25.996Z,4.4
2023-06-29T14:48:34.316Z,4.4
2023-06-29T14:49:42.653Z,4.4
2023-06-29T14:50:51.195Z,3.6
2023-06-29T14:51:59.537Z,3.6
2023-06-29T14:53:07.912Z,3.6
2023-06-29T14:54:16.571Z,4
2023-06-29T14:55:24.854Z,4
2023-06-29T14:56:33.197Z,4
2023-06-29T14:57:41.774Z,3.9
2023-06-29T14:58:50.170Z,3.9
2023-06-29T14:59:58.469Z,3.9
2023-06-29T15:01:07.019Z,4.7
2023-06-29T15:02:15.381Z,4.7
2023-06-29T15:03:23.901Z,4.7
2023-06-29T15:04:32.314Z,3.6
2023-06-29T15:05:40.695Z,3.6
2023-06-29T15:06:49.039Z,3.6
2023-06-29T15:07:57.587Z,2.9
2023-06-29T15:09:06.552Z,2.9
2023-06-29T15:10:14.294Z,2.9
2023-06-29T15:11:22.816Z,5.2
2023-06-29T15:44:39.799Z,0
2023-06-29T15:45:48.346Z,0
2023-06-29T15:46:56.464Z,0
2023-06-29T15:48:05.212Z,3.1
2023-06-29T15:49:13.397Z,3.1
2023-06-29T15:50:21.731Z,3.1
2023-06-29T15:51:30.284Z,4.2
2023-06-29T15:52:39.959Z,4.2
2023-06-29T15:53:47.030Z,4.2
2023-06-29T15:54:55.575Z,2.9
2023-06-29T15:56:03.917Z,2.9
2023-06-29T15:57:12.256Z,2.9
2023-06-29T15:58:20.824Z,2.9
2023-06-29T15:59:29.178Z,2.9
2023-06-29T16:00:37.582Z,2.9
2023-06-29T16:01:46.160Z,3.5
2023-06-29T16:02:54.548Z,3.5
2023-06-29T16:04:02.859Z,3.5
2023-06-29T16:05:11.375Z,3.4
2023-06-29T16:06:19.723Z,3.4
2023-06-29T16:07:28.100Z,3.4
2023-06-29T16:08:36.696Z,3.8
2023-06-29T16:09:45.041Z,3.8
2023-06-29T16:10:53.374Z,3.8
2023-06-29T16:12:01.961Z,3.8
2023-06-29T16:13:10.330Z,3.8
2023-06-29T16:14:18.661Z,3.8
2023-06-29T16:15:28.714Z,3.6
2023-06-29T16:16:35.684Z,3.6
2023-06-29T16:17:43.963Z,3.6
2023-06-29T16:18:52.480Z,2.7
2023-06-29T16:20:00.847Z,2.7
2023-06-29T16:21:09.219Z,2.7
2023-06-29T16:22:17.822Z,6.6
2023-06-29T16:23:26.125Z,6.6
2023-06-29T16:24:34.484Z,6.6
2023-06-29T16:25:43.267Z,3.6
2023-06-29T16:26:51.402Z,3.6
2023-06-29T16:27:59.755Z,3.6
2023-06-29T16:29:08.287Z,5.2
2023-06-29T16:30:16.649Z,5.2
2023-06-29T16:31:25.084Z,5.2
2023-06-29T16:32:33.692Z,4.9
2023-06-29T16:33:41.904Z,4.9